MSC Orchestra — 3EJF3 — position and weather

sailwx.info

Track history (hours):
 
Tides and Currents Weather Stations Pressure Air Temp Water Temp Dewpoint Dewpoint Depression Visibility Wind Speed Wind Dir Waves Ship Positions

MSC Orchestra

Last reported at 2017-Oct-22 17:30 UTC. Time now 2017-Oct-22 17:52 UTC.
Position N 44°07' E 009°01'.

Length 292 m; draft 7.7 m.

Type: Ship. MMSI: 372497000.

Date/timePositionNaut miles runAvg speedWind from/ knotsBaromVisibWave heightAir tempDewpointWater temp
2017-Oct-22 17:30N 44°07' E 009°01'815.4
2017-Oct-22 17:00N 44°14' E 009°05'4 7.4
2017-Oct-22 16:30N 44°17' E 009°04'3 6.7
2017-Oct-22 16:00N 44°19' E 009°00'4 7.8
2017-Oct-22 15:30N 44°22' E 008°57'3 5.5
2017-Oct-22 14:59N 44°25' E 008°55'0 0.0
2017-Oct-22 14:29N 44°25' E 008°55'0 0.0
2017-Oct-22 13:53N 44°25' E 008°55'0 0.0
2017-Oct-22 13:20N 44°25' E 008°55'0 0.0
2017-Oct-22 12:49N 44°25' E 008°55'0 0.0
2017-Oct-22 12:28N 44°25' E 008°55'0 0.0
2017-Oct-22 11:55N 44°25' E 008°55'0 0.0
2017-Oct-22 11:25N 44°25' E 008°55'0 0.0
2017-Oct-22 10:49N 44°25' E 008°55'0 0.0
2017-Oct-22 10:30N 44°25' E 008°55'0 0.0
2017-Oct-22 09:57N 44°25' E 008°55'0 0.0
2017-Oct-22 09:30N 44°25' E 008°55'0 0.0
2017-Oct-22 09:00N 44°25' E 008°55'0 0.0
2017-Oct-22 08:30N 44°25' E 008°55'0 0.0
2017-Oct-22 07:53N 44°25' E 008°55'0 0.0
2017-Oct-22 07:26N 44°25' E 008°55'0 0.0
2017-Oct-22 06:59N 44°25' E 008°55'0 0.0
2017-Oct-22 06:29N 44°25' E 008°55'0 0.0
2017-Oct-22 06:00N 44°25' E 008°55'1 1.7
2017-Oct-22 05:30N 44°24' E 008°55'4 8.3
2017-Oct-22 05:00N 44°20' E 008°59'4 8.0
2017-Oct-22 04:30N 44°16' E 008°59'3 6.9
2017-Oct-22 04:00N 44°13' E 008°60'4 7.1
2017-Oct-22 03:30N 44°10' E 008°60'4 7.1
2017-Oct-22 03:00N 44°06' E 009°00'4 7.1
2017-Oct-22 02:30N 44°02' E 009°00'3 6.9
2017-Oct-22 02:00N 43°59' E 009°01'3 6.2
2017-Oct-22 01:30N 43°56' E 009°01'3 6.4
2017-Oct-22 01:00N 43°53' E 009°01'3 6.3
2017-Oct-22 00:30N 43°50' E 009°01'3 6.0
2017-Oct-22 00:00N 43°47' E 009°04'3 5.5
2017-Oct-21 23:30N 43°47' E 009°07'3 5.2
2017-Oct-21 23:00N 43°48' E 009°11'3 5.3
2017-Oct-21 22:31N 43°49' E 009°14'3 5.5
2017-Oct-21 22:00N 43°50' E 009°18'3 6.1
2017-Oct-21 21:31N 43°51' E 009°22'3 6.2
2017-Oct-21 21:00N 43°52' E 009°26'3 6.3
2017-Oct-21 20:30N 43°53' E 009°30'3 6.1
2017-Oct-21 20:00N 43°54' E 009°34'3 6.2
2017-Oct-21 19:31N 43°55' E 009°38'3 6.2
2017-Oct-21 19:00N 43°56' E 009°42'3 6.2
2017-Oct-21 18:31N 43°58' E 009°46'3 6.3
2017-Oct-21 18:01N 43°59' E 009°50'3 6.3
2017-Oct-21 17:30N 44°02' E 009°52'4 8.1
2017-Oct-21 17:00N 44°05' E 009°51'1 2.0
2017-Oct-21 16:29N 44°06' E 009°50'0 0.0
2017-Oct-21 15:59N 44°06' E 009°50'0 0.0
2017-Oct-21 15:29N 44°06' E 009°50'0 0.0
2017-Oct-21 14:59N 44°06' E 009°50'0 0.0
2017-Oct-21 14:29N 44°06' E 009°50'0 0.0
2017-Oct-21 13:28N 44°06' E 009°50'0 0.0
2017-Oct-21 12:55N 44°06' E 009°50'0 0.0
2017-Oct-21 12:28N 44°06' E 009°50'0 0.0
2017-Oct-21 11:49N 44°06' E 009°50'0 0.0
2017-Oct-21 11:30N 44°06' E 009°50'0 0.0
2017-Oct-21 11:00N 44°06' E 009°50'0 0.0
2017-Oct-21 10:30N 44°06' E 009°50'0 0.0
2017-Oct-21 10:00N 44°06' E 009°50'0 0.0
2017-Oct-21 09:29N 44°06' E 009°50'0 0.0
2017-Oct-21 08:59N 44°06' E 009°50'0 0.0
2017-Oct-21 08:29N 44°06' E 009°50'0 0.0
2017-Oct-21 07:59N 44°06' E 009°50'0 0.0
2017-Oct-21 07:29N 44°06' E 009°50'0 0.0
2017-Oct-21 06:58N 44°06' E 009°50'0 0.0
2017-Oct-21 06:25N 44°06' E 009°50'0 0.0
2017-Oct-21 05:58N 44°06' E 009°50'0 0.0
2017-Oct-21 05:28N 44°06' E 009°50'0 0.8
2017-Oct-21 05:00N 44°06' E 009°50'3 6.3
2017-Oct-21 04:30N 44°03' E 009°52'712.5
2017-Oct-21 03:57N 43°57' E 009°56'715.0
2017-Oct-21 03:30N 43°51' E 009°52'815.2
2017-Oct-21 03:00N 43°45' E 009°46'816.2
2017-Oct-21 02:30N 43°37' E 009°41'815.1
2017-Oct-21 02:00N 43°30' E 009°40'816.1
2017-Oct-21 01:30N 43°23' E 009°45'816.1
2017-Oct-21 01:00N 43°16' E 009°51'816.0
2017-Oct-21 00:30N 43°09' E 009°56'815.8
2017-Oct-20 23:58N 43°01' E 010°00'816.1
2017-Oct-20 23:30N 42°53' E 010°01'916.1
2017-Oct-20 22:58N 42°45' E 010°02'715.0
2017-Oct-20 22:30N 42°39' E 010°07'816.0
2017-Oct-20 22:00N 42°35' E 010°16'816.1
2017-Oct-20 21:30N 42°30' E 010°25'916.1
2017-Oct-20 20:57N 42°24' E 010°34'916.3
2017-Oct-20 20:25N 42°19' E 010°43'199 4.8
2017-Oct-19 02:55N 41°36' E 006°22'1018.6
2017-Oct-19 02:22N 41°35' E 006°08'718.5
2017-Oct-19 02:00N 41°34' E 005°60'1018.7
2017-Oct-19 01:29N 41°33' E 005°46'918.5
2017-Oct-19 00:58N 41°32' E 005°34'1018.6
2017-Oct-19 00:27N 41°31' E 005°21'818.5
2017-Oct-19 00:00N 41°30' E 005°10'918.5
2017-Oct-18 23:30N 41°29' E 004°58'12618.4
2017-Oct-18 16:39N 41°18' E 002°10'1 0.1
2017-Oct-18 06:04N 41°18' E 002°10'111.1
2017-Oct-18 06:00N 41°18' E 002°11'916.9
2017-Oct-18 05:29N 41°09' E 002°11'10217.1
2017-Oct-17 23:32N 39°27' E 002°25'117.6
2017-Oct-17 23:30N 39°27' E 002°25'815.1
2017-Oct-17 23:00N 39°28' E 002°35'612.3
2017-Oct-17 22:30N 39°33' E 002°38'1 1.0
2017-Oct-17 22:00N 39°33' E 002°38'0 0.0
2017-Oct-17 21:28N 39°33' E 002°38'0 0.0
2017-Oct-17 20:57N 39°33' E 002°38'0 0.0
2017-Oct-17 20:30N 39°33' E 002°38'0 0.0
2017-Oct-17 19:57N 39°33' E 002°38'0 0.0
2017-Oct-17 19:30N 39°33' E 002°38'0 0.0
2017-Oct-17 19:00N 39°33' E 002°38'0 0.0
2017-Oct-17 18:29N 39°33' E 002°38'0 0.0
2017-Oct-17 17:59N 39°33' E 002°38'0 0.0
2017-Oct-17 17:29N 39°33' E 002°38'0 0.0
2017-Oct-17 16:59N 39°33' E 002°38'0 0.0
2017-Oct-17 16:29N 39°33' E 002°38'0 0.0
2017-Oct-17 15:58N 39°33' E 002°38'0 0.0
2017-Oct-17 15:28N 39°33' E 002°38'0 0.0
2017-Oct-17 14:58N 39°33' E 002°38'0 0.0
2017-Oct-17 14:28N 39°33' E 002°38'0 0.0
2017-Oct-17 13:57N 39°33' E 002°38'0 0.0
2017-Oct-17 13:30N 39°33' E 002°38'0 0.0
2017-Oct-17 13:00N 39°33' E 002°38'0 0.0
2017-Oct-17 12:27N 39°33' E 002°38'0 0.0
2017-Oct-17 12:00N 39°33' E 002°38'0 0.0
2017-Oct-17 11:29N 39°33' E 002°38'2 3.2
2017-Oct-17 11:00N 39°32' E 002°38'714.7
2017-Oct-17 10:30N 39°26' E 002°32'2911.0
2017-Oct-17 07:53N 39°54' E 002°38'15516.6
2017-Oct-16 22:31N 41°43' E 005°05'616.5
2017-Oct-16 22:10N 41°47' E 005°10'316.9
2017-Oct-16 22:00N 41°49' E 005°13'916.9
2017-Oct-16 21:30N 41°55' E 005°21'816.7
2017-Oct-16 21:00N 42°01' E 005°29'916.4
2017-Oct-16 20:28N 42°07' E 005°38'816.8
2017-Oct-16 20:00N 42°12' E 005°45'816.8
2017-Oct-16 19:30N 42°18' E 005°53'816.6
2017-Oct-16 19:00N 42°24' E 006°01'816.4
2017-Oct-16 18:30N 42°30' E 006°09'816.7
2017-Oct-16 18:01N 42°36' E 006°17'816.5
2017-Oct-16 17:30N 42°41' E 006°25'816.5
2017-Oct-16 17:00N 42°47' E 006°33'816.7
2017-Oct-16 16:30N 42°53' E 006°41'816.6
2017-Oct-16 16:00N 42°59' E 006°49'916.8
2017-Oct-16 15:30N 43°07' E 006°52'816.9
2017-Oct-16 15:00N 43°15' E 006°55'1616.1
2017-Oct-16 14:00N 43°31' E 007°00'1 2.5
2017-Oct-16 13:30N 43°32' E 007°01'0 0.0
2017-Oct-16 12:58N 43°32' E 007°01'0 0.0
2017-Oct-16 12:30N 43°32' E 007°01'0 0.0
2017-Oct-16 12:00N 43°32' E 007°01'0 0.0
2017-Oct-16 11:30N 43°32' E 007°01'0 0.0
2017-Oct-16 10:57N 43°32' E 007°01'0 0.0
2017-Oct-16 10:30N 43°32' E 007°01'0 0.0
2017-Oct-16 09:59N 43°32' E 007°01'0 0.1
2017-Oct-16 09:30N 43°32' E 007°01'0 0.0
2017-Oct-16 09:00N 43°32' E 007°01'0 0.0
2017-Oct-16 08:30N 43°32' E 007°01'0 0.0
2017-Oct-16 08:00N 43°32' E 007°01'0 0.0
2017-Oct-16 07:30N 43°32' E 007°01'0 0.0
2017-Oct-16 07:00N 43°32' E 007°01'0 0.0
2017-Oct-16 06:30N 43°32' E 007°01'0 0.0
2017-Oct-16 06:00N 43°32' E 007°01'0 0.0
2017-Oct-16 05:30N 43°32' E 007°01'0 0.3
2017-Oct-16 05:00N 43°32' E 007°01'1 3.0
2017-Oct-16 04:30N 43°30' E 007°01'4 7.4
2017-Oct-16 04:00N 43°27' E 007°03'4 8.8
2017-Oct-16 03:30N 43°28' E 007°09'5 9.0
2017-Oct-16 03:00N 43°29' E 007°15'4 8.8
2017-Oct-16 02:30N 43°30' E 007°21'4 8.9
2017-Oct-16 02:00N 43°31' E 007°27'5 9.3
2017-Oct-16 01:27N 43°32' E 007°34'6 8.9
2017-Oct-16 00:47N 43°33' E 007°42'3 9.2
2017-Oct-16 00:30N 43°34' E 007°45'5 9.3
2017-Oct-16 00:00N 43°35' E 007°52'5 9.2
2017-Oct-15 23:29N 43°37' E 007°58'5 9.0
2017-Oct-15 22:53N 43°38' E 008°05'6 9.2
2017-Oct-15 22:15N 43°41' E 008°12'2 9.0
2017-Oct-15 22:00N 43°42' E 008°15'4 8.8
2017-Oct-15 21:30N 43°45' E 008°20'4 8.7
2017-Oct-15 21:00N 43°48' E 008°24'4 8.6
2017-Oct-15 20:30N 43°52' E 008°27'4 8.8
2017-Oct-15 20:00N 43°55' E 008°31'5 9.0
2017-Oct-15 19:30N 43°59' E 008°35'5 9.1
2017-Oct-15 19:00N 44°02' E 008°39'5 9.1
2017-Oct-15 18:30N 44°06' E 008°43'5 9.1
2017-Oct-15 18:00N 44°09' E 008°47'4 8.9
2017-Oct-15 17:30N 44°13' E 008°51'5 9.2
2017-Oct-15 17:00N 44°16' E 008°55'4 8.9
2017-Oct-15 16:30N 44°20' E 008°58'4 8.7
2017-Oct-15 16:00N 44°24' E 008°55'0 0.8
2017-Oct-15 15:28N 44°25' E 008°55'0 0.0
2017-Oct-15 14:52N 44°25' E 008°55'0 0.0
2017-Oct-15 14:00N 44°25' E 008°55'0 0.0
2017-Oct-15 13:27N 44°25' E 008°55'0 0.0
2017-Oct-15 12:57N 44°25' E 008°55'0 0.0
2017-Oct-15 12:27N 44°25' E 008°55'0 0.0
2017-Oct-15 11:59N 44°25' E 008°55'0 0.0
2017-Oct-15 11:29N 44°25' E 008°55'0 0.0
2017-Oct-15 10:56N 44°25' E 008°55'0 0.0
2017-Oct-15 10:23N 44°25' E 008°55'0 0.0
2017-Oct-15 09:56N 44°25' E 008°55'0 0.0
2017-Oct-15 09:28N 44°25' E 008°55'0 0.0
2017-Oct-15 08:58N 44°25' E 008°55'0 0.0
2017-Oct-15 08:25N 44°25' E 008°55'0 0.0
2017-Oct-15 07:55N 44°25' E 008°55'0 0.0
2017-Oct-15 07:30N 44°25' E 008°55'0 0.0
2017-Oct-15 07:00N 44°25' E 008°55'0 0.0
2017-Oct-15 06:27N 44°25' E 008°55'0 0.0
2017-Oct-15 05:54N 44°25' E 008°55'1 1.5
2017-Oct-15 05:31N 44°24' E 008°55'2 4.7
2017-Oct-15 05:00N 44°22' E 008°58'4 8.2
2017-Oct-15 04:30N 44°18' E 008°59'4 8.2
2017-Oct-15 04:01N 44°14' E 008°60'4 8.8
2017-Oct-15 03:30N 44°10' E 008°60'4 7.5
2017-Oct-15 03:00N 44°06' E 009°01'3 5.5
2017-Oct-15 02:30N 44°04' E 009°01'3 5.3
2017-Oct-15 02:01N 44°01' E 009°02'3 6.9
2017-Oct-15 01:31N 43°58' E 009°02'3 6.2
2017-Oct-15 01:00N 43°54' E 009°02'3 6.2
2017-Oct-15 00:31N 43°51' E 009°02'3 6.2
2017-Oct-15 00:01N 43°48' E 009°02'3 5.9
2017-Oct-14 23:30N 43°46' E 009°05'3 6.1
2017-Oct-14 23:00N 43°47' E 009°09'3 6.1
2017-Oct-14 22:31N 43°48' E 009°13'3 6.0
2017-Oct-14 22:00N 43°49' E 009°17'3 6.6
2017-Oct-14 21:30N 43°51' E 009°21'3 6.5
2017-Oct-14 21:01N 43°52' E 009°25'3 6.4
2017-Oct-14 20:30N 43°53' E 009°30'4 6.5
2017-Oct-14 19:56N 43°54' E 009°34'3 6.5
2017-Oct-14 19:30N 43°55' E 009°38'3 6.6
2017-Oct-14 19:01N 43°56' E 009°42'4 6.6
2017-Oct-14 18:26N 43°58' E 009°47'3 6.9
2017-Oct-14 18:00N 43°59' E 009°51'3 6.7
2017-Oct-14 17:30N 44°03' E 009°52'4 7.0
2017-Oct-14 16:57N 44°06' E 009°50'0 0.1
2017-Oct-14 16:30N 44°06' E 009°50'0 0.0
2017-Oct-14 15:57N 44°06' E 009°50'0 0.0
2017-Oct-14 15:29N 44°06' E 009°50'0 0.0
2017-Oct-14 14:59N 44°06' E 009°50'0 0.0
2017-Oct-14 14:29N 44°06' E 009°50'0 0.0
2017-Oct-14 13:59N 44°06' E 009°50'0 0.0
2017-Oct-14 13:28N 44°06' E 009°50'0 0.0
2017-Oct-14 12:58N 44°06' E 009°50'0 0.0
2017-Oct-14 12:28N 44°06' E 009°50'0 0.0
2017-Oct-14 11:58N 44°06' E 009°50'0 0.0
2017-Oct-14 11:25N 44°06' E 009°50'0 0.0
2017-Oct-14 10:54N 44°06' E 009°50'0 0.0
2017-Oct-14 10:30N 44°06' E 009°50'0 0.0
2017-Oct-14 10:00N 44°06' E 009°50'0 0.0
2017-Oct-14 09:24N 44°06' E 009°50'0 0.0
2017-Oct-14 09:00N 44°06' E 009°50'0 0.0
2017-Oct-14 08:29N 44°06' E 009°50'0 0.0
2017-Oct-14 07:59N 44°06' E 009°50'0 0.0
2017-Oct-14 07:29N 44°06' E 009°50'0 0.0
2017-Oct-14 06:59N 44°06' E 009°50'0 0.0
2017-Oct-14 06:28N 44°06' E 009°50'0 0.0
2017-Oct-14 05:58N 44°06' E 009°50'0 0.0
2017-Oct-14 05:28N 44°06' E 009°50'0 0.5
2017-Oct-14 05:00N 44°06' E 009°50'3 6.1
2017-Oct-14 04:30N 44°03' E 009°52'713.1
2017-Oct-14 04:01N 43°58' E 009°57'815.0
2017-Oct-14 03:31N 43°51' E 009°52'714.9
2017-Oct-14 03:01N 43°45' E 009°46'815.7
2017-Oct-14 02:30N 43°38' E 009°41'714.8
2017-Oct-14 02:01N 43°31' E 009°39'815.4
2017-Oct-14 01:31N 43°24' E 009°44'915.7
2017-Oct-14 00:57N 43°16' E 009°50'715.6
2017-Oct-14 00:30N 43°10' E 009°55'815.5
2017-Oct-14 00:01N 43°04' E 009°60'815.7
2017-Oct-13 23:30N 42°56' E 010°01'915.9
2017-Oct-13 22:56N 42°47' E 010°01'614.5
2017-Oct-13 22:31N 42°41' E 010°05'815.5
2017-Oct-13 21:58N 42°36' E 010°14'1115.7
2017-Oct-13 21:16N 42°29' E 010°26'415.7
2017-Oct-13 21:00N 42°26' E 010°31'915.6
2017-Oct-13 20:25N 42°21' E 010°40'615.6
2017-Oct-13 20:01N 42°17' E 010°47'1515.4
2017-Oct-13 19:02N 42°08' E 011°03'115.7
2017-Oct-13 18:59N 42°08' E 011°04'2715.8
2017-Oct-13 17:18N 42°06' E 011°40'  
Track history (hours):
 
Tides and Currents Weather Stations Pressure Air Temp Water Temp Dewpoint Dewpoint Depression Visibility Wind Speed Wind Dir Waves Ship Positions

MSC Orchestra

Last reported at 2017-Oct-22 17:30 UTC. Time now 2017-Oct-22 17:52 UTC.
Position N 44°07' E 009°01'.

Length 292 m; draft 7.7 m.

Type: Ship. MMSI: 372497000.

Date/timePositionNaut miles runAvg speedWind from/ knotsBaromVisibWave heightAir tempDewpointWater temp
2017-Oct-22 17:30N 44°07' E 009°01'815.4
2017-Oct-22 17:00N 44°14' E 009°05'4 7.4
2017-Oct-22 16:30N 44°17' E 009°04'3 6.7
2017-Oct-22 16:00N 44°19' E 009°00'4 7.8
2017-Oct-22 15:30N 44°22' E 008°57'3 5.5
2017-Oct-22 14:59N 44°25' E 008°55'0 0.0
2017-Oct-22 14:29N 44°25' E 008°55'0 0.0
2017-Oct-22 13:53N 44°25' E 008°55'0 0.0
2017-Oct-22 13:20N 44°25' E 008°55'0 0.0
2017-Oct-22 12:49N 44°25' E 008°55'0 0.0
2017-Oct-22 12:28N 44°25' E 008°55'0 0.0
2017-Oct-22 11:55N 44°25' E 008°55'0 0.0
2017-Oct-22 11:25N 44°25' E 008°55'0 0.0
2017-Oct-22 10:49N 44°25' E 008°55'0 0.0
2017-Oct-22 10:30N 44°25' E 008°55'0 0.0
2017-Oct-22 09:57N 44°25' E 008°55'0 0.0
2017-Oct-22 09:30N 44°25' E 008°55'0 0.0
2017-Oct-22 09:00N 44°25' E 008°55'0 0.0
2017-Oct-22 08:30N 44°25' E 008°55'0 0.0
2017-Oct-22 07:53N 44°25' E 008°55'0 0.0
2017-Oct-22 07:26N 44°25' E 008°55'0 0.0
2017-Oct-22 06:59N 44°25' E 008°55'0 0.0
2017-Oct-22 06:29N 44°25' E 008°55'0 0.0
2017-Oct-22 06:00N 44°25' E 008°55'1 1.7
2017-Oct-22 05:30N 44°24' E 008°55'4 8.3
2017-Oct-22 05:00N 44°20' E 008°59'4 8.0
2017-Oct-22 04:30N 44°16' E 008°59'3 6.9
2017-Oct-22 04:00N 44°13' E 008°60'4 7.1
2017-Oct-22 03:30N 44°10' E 008°60'4 7.1
2017-Oct-22 03:00N 44°06' E 009°00'4 7.1
2017-Oct-22 02:30N 44°02' E 009°00'3 6.9
2017-Oct-22 02:00N 43°59' E 009°01'3 6.2
2017-Oct-22 01:30N 43°56' E 009°01'3 6.4
2017-Oct-22 01:00N 43°53' E 009°01'3 6.3
2017-Oct-22 00:30N 43°50' E 009°01'3 6.0
2017-Oct-22 00:00N 43°47' E 009°04'3 5.5
2017-Oct-21 23:30N 43°47' E 009°07'3 5.2
2017-Oct-21 23:00N 43°48' E 009°11'3 5.3
2017-Oct-21 22:31N 43°49' E 009°14'3 5.5
2017-Oct-21 22:00N 43°50' E 009°18'3 6.1
2017-Oct-21 21:31N 43°51' E 009°22'3 6.2
2017-Oct-21 21:00N 43°52' E 009°26'3 6.3
2017-Oct-21 20:30N 43°53' E 009°30'3 6.1
2017-Oct-21 20:00N 43°54' E 009°34'3 6.2
2017-Oct-21 19:31N 43°55' E 009°38'3 6.2
2017-Oct-21 19:00N 43°56' E 009°42'3 6.2
2017-Oct-21 18:31N 43°58' E 009°46'3 6.3
2017-Oct-21 18:01N 43°59' E 009°50'3 6.3
2017-Oct-21 17:30N 44°02' E 009°52'4 8.1
2017-Oct-21 17:00N 44°05' E 009°51'1 2.0
2017-Oct-21 16:29N 44°06' E 009°50'0 0.0
2017-Oct-21 15:59N 44°06' E 009°50'0 0.0
2017-Oct-21 15:29N 44°06' E 009°50'0 0.0
2017-Oct-21 14:59N 44°06' E 009°50'0 0.0
2017-Oct-21 14:29N 44°06' E 009°50'0 0.0
2017-Oct-21 13:28N 44°06' E 009°50'0 0.0
2017-Oct-21 12:55N 44°06' E 009°50'0 0.0
2017-Oct-21 12:28N 44°06' E 009°50'0 0.0
2017-Oct-21 11:49N 44°06' E 009°50'0 0.0
2017-Oct-21 11:30N 44°06' E 009°50'0 0.0
2017-Oct-21 11:00N 44°06' E 009°50'0 0.0
2017-Oct-21 10:30N 44°06' E 009°50'0 0.0
2017-Oct-21 10:00N 44°06' E 009°50'0 0.0
2017-Oct-21 09:29N 44°06' E 009°50'0 0.0
2017-Oct-21 08:59N 44°06' E 009°50'0 0.0
2017-Oct-21 08:29N 44°06' E 009°50'0 0.0
2017-Oct-21 07:59N 44°06' E 009°50'0 0.0
2017-Oct-21 07:29N 44°06' E 009°50'0 0.0
2017-Oct-21 06:58N 44°06' E 009°50'0 0.0
2017-Oct-21 06:25N 44°06' E 009°50'0 0.0
2017-Oct-21 05:58N 44°06' E 009°50'0 0.0
2017-Oct-21 05:28N 44°06' E 009°50'0 0.8
2017-Oct-21 05:00N 44°06' E 009°50'3 6.3
2017-Oct-21 04:30N 44°03' E 009°52'712.5
2017-Oct-21 03:57N 43°57' E 009°56'715.0
2017-Oct-21 03:30N 43°51' E 009°52'815.2
2017-Oct-21 03:00N 43°45' E 009°46'816.2
2017-Oct-21 02:30N 43°37' E 009°41'815.1
2017-Oct-21 02:00N 43°30' E 009°40'816.1
2017-Oct-21 01:30N 43°23' E 009°45'816.1
2017-Oct-21 01:00N 43°16' E 009°51'816.0
2017-Oct-21 00:30N 43°09' E 009°56'815.8
2017-Oct-20 23:58N 43°01' E 010°00'816.1
2017-Oct-20 23:30N 42°53' E 010°01'916.1
2017-Oct-20 22:58N 42°45' E 010°02'715.0
2017-Oct-20 22:30N 42°39' E 010°07'816.0
2017-Oct-20 22:00N 42°35' E 010°16'816.1
2017-Oct-20 21:30N 42°30' E 010°25'916.1
2017-Oct-20 20:57N 42°24' E 010°34'916.3
2017-Oct-20 20:25N 42°19' E 010°43'199 4.8
2017-Oct-19 02:55N 41°36' E 006°22'1018.6
2017-Oct-19 02:22N 41°35' E 006°08'718.5
2017-Oct-19 02:00N 41°34' E 005°60'1018.7
2017-Oct-19 01:29N 41°33' E 005°46'918.5
2017-Oct-19 00:58N 41°32' E 005°34'1018.6
2017-Oct-19 00:27N 41°31' E 005°21'818.5
2017-Oct-19 00:00N 41°30' E 005°10'918.5
2017-Oct-18 23:30N 41°29' E 004°58'12618.4
2017-Oct-18 16:39N 41°18' E 002°10'1 0.1
2017-Oct-18 06:04N 41°18' E 002°10'111.1
2017-Oct-18 06:00N 41°18' E 002°11'916.9
2017-Oct-18 05:29N 41°09' E 002°11'10217.1
2017-Oct-17 23:32N 39°27' E 002°25'117.6
2017-Oct-17 23:30N 39°27' E 002°25'815.1
2017-Oct-17 23:00N 39°28' E 002°35'612.3
2017-Oct-17 22:30N 39°33' E 002°38'1 1.0
2017-Oct-17 22:00N 39°33' E 002°38'0 0.0
2017-Oct-17 21:28N 39°33' E 002°38'0 0.0
2017-Oct-17 20:57N 39°33' E 002°38'0 0.0
2017-Oct-17 20:30N 39°33' E 002°38'0 0.0
2017-Oct-17 19:57N 39°33' E 002°38'0 0.0
2017-Oct-17 19:30N 39°33' E 002°38'0 0.0
2017-Oct-17 19:00N 39°33' E 002°38'0 0.0
2017-Oct-17 18:29N 39°33' E 002°38'0 0.0
2017-Oct-17 17:59N 39°33' E 002°38'0 0.0
2017-Oct-17 17:29N 39°33' E 002°38'0 0.0
2017-Oct-17 16:59N 39°33' E 002°38'0 0.0
2017-Oct-17 16:29N 39°33' E 002°38'0 0.0
2017-Oct-17 15:58N 39°33' E 002°38'0 0.0
2017-Oct-17 15:28N 39°33' E 002°38'0 0.0
2017-Oct-17 14:58N 39°33' E 002°38'0 0.0
2017-Oct-17 14:28N 39°33' E 002°38'0 0.0
2017-Oct-17 13:57N 39°33' E 002°38'0 0.0
2017-Oct-17 13:30N 39°33' E 002°38'0 0.0
2017-Oct-17 13:00N 39°33' E 002°38'0 0.0
2017-Oct-17 12:27N 39°33' E 002°38'0 0.0
2017-Oct-17 12:00N 39°33' E 002°38'0 0.0
2017-Oct-17 11:29N 39°33' E 002°38'2 3.2
2017-Oct-17 11:00N 39°32' E 002°38'714.7
2017-Oct-17 10:30N 39°26' E 002°32'2911.0
2017-Oct-17 07:53N 39°54' E 002°38'15516.6
2017-Oct-16 22:31N 41°43' E 005°05'616.5
2017-Oct-16 22:10N 41°47' E 005°10'316.9
2017-Oct-16 22:00N 41°49' E 005°13'916.9
2017-Oct-16 21:30N 41°55' E 005°21'816.7
2017-Oct-16 21:00N 42°01' E 005°29'916.4
2017-Oct-16 20:28N 42°07' E 005°38'816.8
2017-Oct-16 20:00N 42°12' E 005°45'816.8
2017-Oct-16 19:30N 42°18' E 005°53'816.6
2017-Oct-16 19:00N 42°24' E 006°01'816.4
2017-Oct-16 18:30N 42°30' E 006°09'816.7
2017-Oct-16 18:01N 42°36' E 006°17'816.5
2017-Oct-16 17:30N 42°41' E 006°25'816.5
2017-Oct-16 17:00N 42°47' E 006°33'816.7
2017-Oct-16 16:30N 42°53' E 006°41'816.6
2017-Oct-16 16:00N 42°59' E 006°49'916.8
2017-Oct-16 15:30N 43°07' E 006°52'816.9
2017-Oct-16 15:00N 43°15' E 006°55'1616.1
2017-Oct-16 14:00N 43°31' E 007°00'1 2.5
2017-Oct-16 13:30N 43°32' E 007°01'0 0.0
2017-Oct-16 12:58N 43°32' E 007°01'0 0.0
2017-Oct-16 12:30N 43°32' E 007°01'0 0.0
2017-Oct-16 12:00N 43°32' E 007°01'0 0.0
2017-Oct-16 11:30N 43°32' E 007°01'0 0.0
2017-Oct-16 10:57N 43°32' E 007°01'0 0.0
2017-Oct-16 10:30N 43°32' E 007°01'0 0.0
2017-Oct-16 09:59N 43°32' E 007°01'0 0.1
2017-Oct-16 09:30N 43°32' E 007°01'0 0.0
2017-Oct-16 09:00N 43°32' E 007°01'0 0.0
2017-Oct-16 08:30N 43°32' E 007°01'0 0.0
2017-Oct-16 08:00N 43°32' E 007°01'0 0.0
2017-Oct-16 07:30N 43°32' E 007°01'0 0.0
2017-Oct-16 07:00N 43°32' E 007°01'0 0.0
2017-Oct-16 06:30N 43°32' E 007°01'0 0.0
2017-Oct-16 06:00N 43°32' E 007°01'0 0.0
2017-Oct-16 05:30N 43°32' E 007°01'0 0.3
2017-Oct-16 05:00N 43°32' E 007°01'1 3.0
2017-Oct-16 04:30N 43°30' E 007°01'4 7.4
2017-Oct-16 04:00N 43°27' E 007°03'4 8.8
2017-Oct-16 03:30N 43°28' E 007°09'5 9.0
2017-Oct-16 03:00N 43°29' E 007°15'4 8.8
2017-Oct-16 02:30N 43°30' E 007°21'4 8.9
2017-Oct-16 02:00N 43°31' E 007°27'5 9.3
2017-Oct-16 01:27N 43°32' E 007°34'6 8.9
2017-Oct-16 00:47N 43°33' E 007°42'3 9.2
2017-Oct-16 00:30N 43°34' E 007°45'5 9.3
2017-Oct-16 00:00N 43°35' E 007°52'5 9.2
2017-Oct-15 23:29N 43°37' E 007°58'5 9.0
2017-Oct-15 22:53N 43°38' E 008°05'6 9.2
2017-Oct-15 22:15N 43°41' E 008°12'2 9.0
2017-Oct-15 22:00N 43°42' E 008°15'4 8.8
2017-Oct-15 21:30N 43°45' E 008°20'4 8.7
2017-Oct-15 21:00N 43°48' E 008°24'4 8.6
2017-Oct-15 20:30N 43°52' E 008°27'4 8.8
2017-Oct-15 20:00N 43°55' E 008°31'5 9.0
2017-Oct-15 19:30N 43°59' E 008°35'5 9.1
2017-Oct-15 19:00N 44°02' E 008°39'5 9.1
2017-Oct-15 18:30N 44°06' E 008°43'5 9.1
2017-Oct-15 18:00N 44°09' E 008°47'4 8.9
2017-Oct-15 17:30N 44°13' E 008°51'5 9.2
2017-Oct-15 17:00N 44°16' E 008°55'4 8.9
2017-Oct-15 16:30N 44°20' E 008°58'4 8.7
2017-Oct-15 16:00N 44°24' E 008°55'0 0.8
2017-Oct-15 15:28N 44°25' E 008°55'0 0.0
2017-Oct-15 14:52N 44°25' E 008°55'0 0.0
2017-Oct-15 14:00N 44°25' E 008°55'0 0.0
2017-Oct-15 13:27N 44°25' E 008°55'0 0.0
2017-Oct-15 12:57N 44°25' E 008°55'0 0.0
2017-Oct-15 12:27N 44°25' E 008°55'0 0.0
2017-Oct-15 11:59N 44°25' E 008°55'0 0.0
2017-Oct-15 11:29N 44°25' E 008°55'0 0.0
2017-Oct-15 10:56N 44°25' E 008°55'0 0.0
2017-Oct-15 10:23N 44°25' E 008°55'0 0.0
2017-Oct-15 09:56N 44°25' E 008°55'0 0.0
2017-Oct-15 09:28N 44°25' E 008°55'0 0.0
2017-Oct-15 08:58N 44°25' E 008°55'0 0.0
2017-Oct-15 08:25N 44°25' E 008°55'0 0.0
2017-Oct-15 07:55N 44°25' E 008°55'0 0.0
2017-Oct-15 07:30N 44°25' E 008°55'0 0.0
2017-Oct-15 07:00N 44°25' E 008°55'0 0.0
2017-Oct-15 06:27N 44°25' E 008°55'0 0.0
2017-Oct-15 05:54N 44°25' E 008°55'1 1.5
2017-Oct-15 05:31N 44°24' E 008°55'2 4.7
2017-Oct-15 05:00N 44°22' E 008°58'4 8.2
2017-Oct-15 04:30N 44°18' E 008°59'4 8.2
2017-Oct-15 04:01N 44°14' E 008°60'4 8.8
2017-Oct-15 03:30N 44°10' E 008°60'4 7.5
2017-Oct-15 03:00N 44°06' E 009°01'3 5.5
2017-Oct-15 02:30N 44°04' E 009°01'3 5.3
2017-Oct-15 02:01N 44°01' E 009°02'3 6.9
2017-Oct-15 01:31N 43°58' E 009°02'3 6.2
2017-Oct-15 01:00N 43°54' E 009°02'3 6.2
2017-Oct-15 00:31N 43°51' E 009°02'3 6.2
2017-Oct-15 00:01N 43°48' E 009°02'3 5.9
2017-Oct-14 23:30N 43°46' E 009°05'3 6.1
2017-Oct-14 23:00N 43°47' E 009°09'3 6.1
2017-Oct-14 22:31N 43°48' E 009°13'3 6.0
2017-Oct-14 22:00N 43°49' E 009°17'3 6.6
2017-Oct-14 21:30N 43°51' E 009°21'3 6.5
2017-Oct-14 21:01N 43°52' E 009°25'3 6.4
2017-Oct-14 20:30N 43°53' E 009°30'4 6.5
2017-Oct-14 19:56N 43°54' E 009°34'3 6.5
2017-Oct-14 19:30N 43°55' E 009°38'3 6.6
2017-Oct-14 19:01N 43°56' E 009°42'4 6.6
2017-Oct-14 18:26N 43°58' E 009°47'3 6.9
2017-Oct-14 18:00N 43°59' E 009°51'3 6.7
2017-Oct-14 17:30N 44°03' E 009°52'4 7.0
2017-Oct-14 16:57N 44°06' E 009°50'0 0.1
2017-Oct-14 16:30N 44°06' E 009°50'0 0.0
2017-Oct-14 15:57N 44°06' E 009°50'0 0.0
2017-Oct-14 15:29N 44°06' E 009°50'0 0.0
2017-Oct-14 14:59N 44°06' E 009°50'0 0.0
2017-Oct-14 14:29N 44°06' E 009°50'0 0.0
2017-Oct-14 13:59N 44°06' E 009°50'0 0.0
2017-Oct-14 13:28N 44°06' E 009°50'0 0.0
2017-Oct-14 12:58N 44°06' E 009°50'0 0.0
2017-Oct-14 12:28N 44°06' E 009°50'0 0.0
2017-Oct-14 11:58N 44°06' E 009°50'0 0.0
2017-Oct-14 11:25N 44°06' E 009°50'0 0.0
2017-Oct-14 10:54N 44°06' E 009°50'0 0.0
2017-Oct-14 10:30N 44°06' E 009°50'0 0.0
2017-Oct-14 10:00N 44°06' E 009°50'0 0.0
2017-Oct-14 09:24N 44°06' E 009°50'0 0.0
2017-Oct-14 09:00N 44°06' E 009°50'0 0.0
2017-Oct-14 08:29N 44°06' E 009°50'0 0.0
2017-Oct-14 07:59N 44°06' E 009°50'0 0.0
2017-Oct-14 07:29N 44°06' E 009°50'0 0.0
2017-Oct-14 06:59N 44°06' E 009°50'0 0.0
2017-Oct-14 06:28N 44°06' E 009°50'0 0.0
2017-Oct-14 05:58N 44°06' E 009°50'0 0.0
2017-Oct-14 05:28N 44°06' E 009°50'0 0.5
2017-Oct-14 05:00N 44°06' E 009°50'3 6.1
2017-Oct-14 04:30N 44°03' E 009°52'713.1
2017-Oct-14 04:01N 43°58' E 009°57'815.0
2017-Oct-14 03:31N 43°51' E 009°52'714.9
2017-Oct-14 03:01N 43°45' E 009°46'815.7
2017-Oct-14 02:30N 43°38' E 009°41'714.8
2017-Oct-14 02:01N 43°31' E 009°39'815.4
2017-Oct-14 01:31N 43°24' E 009°44'915.7
2017-Oct-14 00:57N 43°16' E 009°50'715.6
2017-Oct-14 00:30N 43°10' E 009°55'815.5
2017-Oct-14 00:01N 43°04' E 009°60'815.7
2017-Oct-13 23:30N 42°56' E 010°01'915.9
2017-Oct-13 22:56N 42°47' E 010°01'614.5
2017-Oct-13 22:31N 42°41' E 010°05'815.5
2017-Oct-13 21:58N 42°36' E 010°14'1115.7
2017-Oct-13 21:16N 42°29' E 010°26'415.7
2017-Oct-13 21:00N 42°26' E 010°31'915.6
2017-Oct-13 20:25N 42°21' E 010°40'615.6
2017-Oct-13 20:01N 42°17' E 010°47'1515.4
2017-Oct-13 19:02N 42°08' E 011°03'115.7
2017-Oct-13 18:59N 42°08' E 011°04'2715.8
2017-Oct-13 17:18N 42°06' E 011°40'  

Dump ship's entire track history